WEATHER

Warnervale Skycam

North West View

North West View

South West View

South West View

Sydney Airport Forecast

  • YSSY TAF

    TAF YSSY 211642Z 2118/2224 17015KT 9999 -SHRA FEW010 BKN020 FM212200 17020KT 9999 -SHRA BKN025 FM220800 17015KT 9999 -SHRA FEW010 BKN025 INTER 2118/2122 5000 SHRA BKN010 INTER 2212/2222 5000 SHRA BKN010 RMK T 21 22 23 23 Q 1019 1020 1020 1020

  • YSSY METAR

    TTF METAR YSSY 211900Z 20014KT 8000 -SHRA FEW012 BKN030 BKN035 19/18 Q1018 RMK RF00.2/007.8 INTER 1900/2200 5000 SHRA BKN010

All information provided on this page is for general information and should NOT be used for flight planning.